Time;durP1;ratioP1;P1;durP2;ratioP2;P2;SDS_P1;SDS_P2;PMS_P1;PMS_P2;Temp;Humidity;BMP_temperature;BMP_pressure;BME280_temperature;BME280_humidity;BME280_pressure;Samples;Min_cycle;Max_cycle;Signal;HPM_P1;HPM_P2
2022/03/31 00:00:15;;;;;;;9.13;6.53;;;;;;;17.13;37.91;91543.44;5062090;28;20048;-87
2022/03/31 00:02:40;;;;;;;7.38;6.10;;;;;;;17.13;37.82;91542.72;5059650;28;20487;-88
2022/03/31 00:05:06;;;;;;;8.50;5.72;;;;;;;17.11;37.96;91540.53;5040378;28;20063;-87
2022/03/31 00:07:33;;;;;;;7.47;6.38;;;;;;;17.12;38.08;91538.53;5041093;28;20121;-87
2022/03/31 00:09:59;;;;;;;8.50;5.90;;;;;;;17.13;38.28;91523.59;5056264;28;20047;-87
2022/03/31 00:12:25;;;;;;;8.90;6.10;;;;;;;17.12;38.07;91525.59;5044517;28;20738;-87
2022/03/31 00:14:56;;;;;;;7.30;5.80;;;;;;;17.12;37.82;91530.31;5082441;28;20029;-88
2022/03/31 00:17:22;;;;;;;7.93;5.95;;;;;;;17.11;38.25;91524.13;5044064;28;23083;-89
2022/03/31 00:19:48;;;;;;;7.82;5.72;;;;;;;17.12;38.03;91533.06;5039026;28;20043;-87
2022/03/31 00:22:13;;;;;;;8.38;5.60;;;;;;;17.11;37.92;91520.69;5055726;28;20081;-87
2022/03/31 00:24:39;;;;;;;7.45;5.90;;;;;;;17.11;38.21;91518.69;5042591;28;20408;-88
2022/03/31 00:27:05;;;;;;;5.78;5.18;;;;;;;17.12;38.23;91519.41;5046541;28;20036;-87
2022/03/31 00:29:30;;;;;;;7.63;5.18;;;;;;;17.12;37.87;91520.13;5037819;28;20037;-88
2022/03/31 00:31:59;;;;;;;7.28;5.70;;;;;;;17.11;38.12;91524.13;5040227;28;20036;-88
2022/03/31 00:34:26;;;;;;;6.88;5.40;;;;;;;17.11;37.75;91517.94;5074484;28;20032;-87
2022/03/31 00:36:51;;;;;;;8.55;5.80;;;;;;;17.12;37.78;91514.69;5058173;28;20033;-91
2022/03/31 00:39:34;;;;;;;6.93;5.50;;;;;;;17.11;38.06;91507.75;5071395;28;20040;-87
2022/03/31 00:42:05;;;;;;;7.00;5.25;;;;;;;17.10;38.01;91508.34;5078179;28;20498;-87
2022/03/31 00:44:32;;;;;;;6.07;5.05;;;;;;;17.09;38.02;91506.88;5050563;28;20071;-87
2022/03/31 00:46:59;;;;;;;7.25;5.15;;;;;;;17.10;37.92;91497.41;5072608;28;20402;-87
2022/03/31 00:49:25;;;;;;;6.22;4.63;;;;;;;17.09;37.47;91507.59;5080066;28;20028;-87
2022/03/31 00:51:53;;;;;;;6.45;5.13;;;;;;;17.09;38.01;91490.50;5072598;22;20059;-87
2022/03/31 00:54:21;;;;;;;6.65;4.97;;;;;;;17.10;37.94;91497.41;5079487;28;20123;-89
2022/03/31 00:56:46;;;;;;;7.93;5.47;;;;;;;17.08;38.21;91481.59;5054465;28;20873;-87
2022/03/31 00:59:12;;;;;;;7.25;4.95;;;;;;;17.09;37.91;91482.31;5036194;28;20123;-90
2022/03/31 01:01:40;;;;;;;6.85;4.93;;;;;;;17.07;37.78;91466.47;5053994;28;20043;-88
2022/03/31 01:04:06;;;;;;;6.20;4.78;;;;;;;17.08;38.00;91481.59;5046857;28;20044;-87
2022/03/31 01:06:33;;;;;;;6.25;4.78;;;;;;;17.08;38.17;91475.41;5055738;28;20032;-87
2022/03/31 01:08:59;;;;;;;6.88;5.13;;;;;;;17.07;37.50;91473.94;5057211;28;20061;-87
2022/03/31 01:11:24;;;;;;;5.85;4.65;;;;;;;17.08;37.95;91469.94;5072527;28;20028;-87
2022/03/31 01:13:50;;;;;;;5.97;4.95;;;;;;;17.07;37.85;91452.09;5071595;28;20055;-87
2022/03/31 01:16:16;;;;;;;5.80;4.68;;;;;;;17.07;37.62;91463.03;5061518;28;20037;-91
2022/03/31 01:18:44;;;;;;;6.03;4.78;;;;;;;17.07;37.98;91466.47;5074728;28;20020;-87
2022/03/31 01:21:12;;;;;;;5.60;4.80;;;;;;;17.07;38.16;91457.56;5060527;28;20051;-87
2022/03/31 01:23:40;;;;;;;5.88;4.50;;;;;;;17.06;38.03;91445.91;5069521;28;20110;-88
2022/03/31 01:26:10;;;;;;;5.63;3.90;;;;;;;17.07;37.59;91438.44;5055579;28;20037;-89
2022/03/31 01:28:40;;;;;;;4.63;4.10;;;;;;;17.07;37.74;91443.91;5065845;28;20040;-90
2022/03/31 01:31:05;;;;;;;6.85;4.80;;;;;;;17.07;37.91;91443.91;5054556;28;20324;-87
2022/03/31 01:33:31;;;;;;;7.38;4.68;;;;;;;17.07;37.68;91443.91;5057103;28;20036;-87
2022/03/31 01:35:56;;;;;;;7.18;4.93;;;;;;;17.07;38.03;91433.00;5080055;28;20025;-88
2022/03/31 01:38:32;;;;;;;5.45;4.28;;;;;;;17.07;37.76;91436.44;5063888;28;20071;-88
2022/03/31 01:40:57;;;;;;;7.38;4.80;;;;;;;17.06;38.04;91437.72;5066727;28;20063;-87
2022/03/31 01:43:23;;;;;;;4.95;3.95;;;;;;;17.07;38.22;91433.00;5067574;28;20815;-88
2022/03/31 01:45:52;;;;;;;5.35;4.47;;;;;;;17.05;37.91;91438.28;5066277;28;20025;-89
2022/03/31 01:48:19;;;;;;;6.25;4.40;;;;;;;17.04;38.28;91434.81;5040609;28;20041;-87
2022/03/31 01:50:44;;;;;;;6.10;4.00;;;;;;;17.05;37.83;91441.72;5038637;28;20033;-88
2022/03/31 01:53:10;;;;;;;6.45;4.20;;;;;;;17.04;38.12;91436.81;5038692;28;20098;-89
2022/03/31 01:55:35;;;;;;;5.40;4.28;;;;;;;17.04;38.09;91443.00;5046221;28;20040;-88
2022/03/31 01:58:01;;;;;;;4.95;4.45;;;;;;;17.03;37.83;91441.53;5059651;28;20040;-89
2022/03/31 02:00:27;;;;;;;5.30;4.25;;;;;;;17.04;37.85;91439.53;5057407;28;20031;-88
2022/03/31 02:02:53;;;;;;;5.63;4.10;;;;;;;17.05;38.11;91441.00;5024321;28;20025;-88
2022/03/31 02:05:27;;;;;;;5.13;3.63;;;;;;;17.04;37.80;91436.81;5072712;28;20399;-88
2022/03/31 02:07:54;;;;;;;5.38;4.45;;;;;;;17.05;37.98;91438.28;5040218;28;20033;-87
2022/03/31 02:10:19;;;;;;;5.45;3.60;;;;;;;17.04;37.90;91437.53;5053927;28;20504;-87
2022/03/31 02:12:45;;;;;;;5.85;3.97;;;;;;;17.03;38.07;91430.63;5041550;28;20072;-87
2022/03/31 02:15:10;;;;;;;5.68;4.38;;;;;;;17.03;37.71;91429.91;5059644;23;20103;-87
2022/03/31 02:17:36;;;;;;;4.57;3.33;;;;;;;17.04;37.86;91428.63;5056594;23;20055;-87
2022/03/31 02:20:03;;;;;;;4.63;3.53;;;;;;;17.04;37.90;91432.09;5044046;28;20042;-88
2022/03/31 02:22:29;;;;;;;5.72;3.83;;;;;;;17.04;38.46;91428.63;5043130;28;20031;-87
2022/03/31 02:25:00;;;;;;;4.60;3.40;;;;;;;17.03;38.29;91430.63;5044795;28;20013;-88
2022/03/31 02:27:27;;;;;;;5.05;3.67;;;;;;;17.03;38.05;91422.44;5039670;28;20033;-88
2022/03/31 02:29:53;;;;;;;4.35;3.75;;;;;;;17.04;37.78;91425.91;5046925;28;20029;-88
2022/03/31 02:32:20;;;;;;;5.05;4.10;;;;;;;17.03;38.11;91416.97;5061543;28;20033;-87
2022/03/31 02:34:46;;;;;;;4.82;3.30;;;;;;;17.03;37.80;91414.25;5060224;28;20037;-88
2022/03/31 02:37:11;;;;;;;3.95;3.35;;;;;;;17.04;37.85;91425.91;5047810;28;20025;-87
2022/03/31 02:39:37;;;;;;;3.83;3.10;;;;;;;17.03;37.90;91410.78;5062488;23;20048;-87
2022/03/31 02:42:03;;;;;;;4.43;3.60;;;;;;;17.02;37.87;91412.06;5046900;28;20021;-88
2022/03/31 02:44:28;;;;;;;4.20;3.47;;;;;;;17.04;37.71;91412.97;5023997;28;20043;-87
2022/03/31 02:46:57;;;;;;;4.50;3.65;;;;;;;17.02;38.19;91407.34;5043308;28;20025;-86
2022/03/31 02:49:22;;;;;;;3.70;3.30;;;;;;;17.02;37.93;91401.16;5072748;28;20048;-88
2022/03/31 02:51:48;;;;;;;3.83;3.10;;;;;;;17.01;37.75;91399.69;5056277;28;20024;-88
2022/03/31 02:56:57;;;;;;;5.55;3.47;;;;;;;17.01;37.99;91394.97;5080070;28;20147;-87
2022/03/31 02:59:23;;;;;;;3.83;3.15;;;;;;;17.01;37.93;91394.25;5085834;28;20044;-88
2022/03/31 03:01:48;;;;;;;4.38;3.30;;;;;;;17.00;38.20;91393.50;5064517;28;20394;-87
2022/03/31 03:04:13;;;;;;;4.68;3.45;;;;;;;17.00;38.01;91390.78;5085478;28;20044;-88
2022/03/31 03:09:14;;;;;;;4.82;3.28;;;;;;;17.00;38.26;91388.06;5035875;28;20042;-88
2022/03/31 03:11:39;;;;;;;3.88;3.28;;;;;;;16.99;38.57;91394.78;5073292;23;20040;-87
2022/03/31 03:14:06;;;;;;;4.60;3.67;;;;;;;16.99;38.18;91394.78;5066641;28;20038;-88
2022/03/31 03:16:33;;;;;;;5.20;3.08;;;;;;;16.99;38.11;91394.06;5075738;28;20058;-89
2022/03/31 03:18:59;;;;;;;3.65;2.83;;;;;;;16.98;38.03;91387.16;5072248;22;20043;-88
2022/03/31 03:21:24;;;;;;;4.13;3.30;;;;;;;16.99;38.26;91388.59;5079535;28;20024;-88
2022/03/31 03:24:01;;;;;;;3.47;2.90;;;;;;;16.99;37.93;91385.88;5079000;28;20040;-89
2022/03/31 03:26:27;;;;;;;3.78;3.13;;;;;;;16.99;38.13;91392.06;5085530;28;20088;-87
2022/03/31 03:28:52;;;;;;;3.83;3.08;;;;;;;16.98;38.16;91390.59;5065945;28;20449;-88
2022/03/31 03:31:17;;;;;;;3.33;2.83;;;;;;;16.99;38.19;91380.41;5074797;28;20090;-88
2022/03/31 03:33:44;;;;;;;4.32;3.08;;;;;;;16.99;37.92;91380.41;5058877;28;20039;-88
2022/03/31 03:36:11;;;;;;;4.53;3.25;;;;;;;16.98;37.81;91378.97;5058968;28;20028;-87
2022/03/31 03:38:38;;;;;;;4.57;3.25;;;;;;;16.98;38.14;91376.22;5048097;28;20032;-88
2022/03/31 03:41:04;;;;;;;4.40;3.03;;;;;;;16.98;38.00;91378.97;5055060;23;20100;-87
2022/03/31 03:43:31;;;;;;;4.43;3.10;;;;;;;16.99;38.20;91377.69;5088489;28;20048;-87
2022/03/31 03:45:56;;;;;;;4.32;3.10;;;;;;;16.98;38.13;91376.22;5078761;28;20042;-89
2022/03/31 03:48:22;;;;;;;5.18;3.08;;;;;;;16.96;38.29;91386.97;5075478;28;20044;-88
2022/03/31 03:50:48;;;;;;;5.43;3.08;;;;;;;16.98;39.17;91374.22;5061564;28;20388;-90
2022/03/31 03:53:14;;;;;;;11.50;3.45;;;;;;;17.01;38.21;91362.22;5074205;28;20028;-89
2022/03/31 03:55:40;;;;;;;66.43;8.93;;;;;;;17.03;38.16;91373.31;5057601;28;20032;-88
2022/03/31 03:58:05;;;;;;;12.85;3.67;;;;;;;17.03;37.80;91367.13;5083533;28;20047;-87
2022/03/31 04:00:31;;;;;;;16.88;3.78;;;;;;;17.02;37.78;91357.47;5061555;28;20113;-87
2022/03/31 04:02:56;;;;;;;9.88;4.13;;;;;;;16.97;39.60;91359.13;5066482;28;20079;-87
2022/03/31 04:05:22;;;;;;;15.13;7.45;;;;;;;16.85;40.23;91349.16;5064901;28;20047;-87
2022/03/31 04:07:47;;;;;;;16.02;9.48;;;;;;;16.85;40.29;91352.63;5063221;28;20032;-88
2022/03/31 04:10:13;;;;;;;27.77;12.48;;;;;;;16.89;39.79;91350.22;5057871;28;20101;-86
2022/03/31 04:12:39;;;;;;;20.55;10.75;;;;;;;16.87;39.62;91347.34;5059598;28;20676;-87
2022/03/31 04:15:06;;;;;;;15.75;9.45;;;;;;;16.88;39.46;91350.81;5054414;28;20479;-86
2022/03/31 04:17:31;;;;;;;16.02;9.13;;;;;;;16.90;38.97;91340.75;5061999;28;20032;-88
2022/03/31 04:19:57;;;;;;;14.05;8.40;;;;;;;16.90;39.25;91354.41;5069087;28;20062;-88
2022/03/31 04:22:22;;;;;;;16.38;8.25;;;;;;;16.93;38.73;91358.03;5078802;28;20135;-88
2022/03/31 04:24:48;;;;;;;15.45;8.05;;;;;;;16.94;38.84;91340.41;5068462;28;20039;-91
2022/03/31 04:27:14;;;;;;;11.18;7.38;;;;;;;16.94;38.56;91338.38;5057252;28;20048;-90
2022/03/31 04:29:40;;;;;;;32.35;23.08;;;;;;;16.99;38.90;91344.94;5072323;28;20456;-88
2022/03/31 04:32:05;;;;;;;71.95;46.17;;;;;;;17.01;38.39;91348.56;5074651;28;20046;-88
2022/03/31 04:34:31;;;;;;;53.53;30.02;;;;;;;17.03;38.64;91351.47;5093477;28;20131;-88
2022/03/31 04:36:57;;;;;;;58.55;35.70;;;;;;;17.06;39.65;91353.09;5060516;28;20046;-91
2022/03/31 04:39:23;;;;;;;68.68;36.88;;;;;;;17.06;39.14;91347.66;5069352;28;20073;-89
2022/03/31 04:41:48;;;;;;;58.33;36.25;;;;;;;17.11;38.95;91349.41;5050094;28;20029;-93
2022/03/31 04:44:16;;;;;;;60.20;37.63;;;;;;;17.10;39.12;91347.97;5083400;28;20038;-89
2022/03/31 04:46:41;;;;;;;71.47;43.92;;;;;;;17.15;38.52;91340.84;5060584;28;20039;-84
2022/03/31 04:49:07;;;;;;;74.65;37.53;;;;;;;17.14;38.77;91344.88;5103078;28;20427;-91
2022/03/31 04:51:32;;;;;;;80.57;43.65;;;;;;;17.14;38.73;91342.88;5060393;28;20067;-88
2022/03/31 04:53:58;;;;;;;85.38;43.47;;;;;;;17.09;38.33;91352.00;5094200;28;20054;-89
2022/03/31 04:56:23;;;;;;;100.90;41.88;;;;;;;17.13;38.20;91346.88;5060402;28;20085;-90
2022/03/31 04:58:49;;;;;;;79.03;33.05;;;;;;;17.03;39.34;91329.63;5066406;28;20048;-87
2022/03/31 05:01:16;;;;;;;80.40;27.67;;;;;;;16.90;40.40;91346.22;5077082;28;20040;-88
2022/03/31 05:03:43;;;;;;;108.78;38.08;;;;;;;16.90;40.30;91340.75;5069132;28;20036;-91
2022/03/31 05:06:10;;;;;;;90.45;34.17;;;;;;;16.79;40.67;91343.91;5062104;28;20023;-89
2022/03/31 05:08:37;;;;;;;55.88;25.98;;;;;;;16.76;41.03;91339.53;5044553;28;20044;-89
2022/03/31 05:11:02;;;;;;;79.60;32.88;;;;;;;16.84;40.71;91339.53;5054129;28;20037;-90
2022/03/31 05:13:28;;;;;;;63.67;32.10;;;;;;;16.84;40.89;91340.25;5061253;28;20043;-90
2022/03/31 05:15:53;;;;;;;80.13;35.78;;;;;;;16.88;41.04;91337.16;5048671;28;20028;-92
2022/03/31 05:18:19;;;;;;;149.70;49.30;;;;;;;16.90;40.26;91332.56;5077845;28;20043;-90
2022/03/31 05:20:45;;;;;;;96.25;41.00;;;;;;;16.92;40.12;91329.28;5058040;28;20033;-90
2022/03/31 05:23:10;;;;;;;98.57;49.47;;;;;;;16.91;40.43;91328.56;5056056;28;20047;-89
2022/03/31 05:25:37;;;;;;;109.20;56.47;;;;;;;16.91;39.95;91325.13;5067173;28;20089;-93
2022/03/31 05:28:03;;;;;;;82.28;46.60;;;;;;;16.92;40.70;91321.09;5044761;28;20035;-91
2022/03/31 05:30:29;;;;;;;100.18;52.17;;;;;;;16.93;40.47;91331.47;5056202;28;20039;-87
2022/03/31 05:32:55;;;;;;;125.80;71.72;;;;;;;16.93;39.73;91328.75;5056191;28;20127;-93
2022/03/31 05:35:21;;;;;;;130.55;80.15;;;;;;;16.97;39.39;91328.38;5055455;28;20069;-91
2022/03/31 05:37:46;;;;;;;104.68;65.22;;;;;;;16.94;39.42;91334.94;5040780;28;20536;-90
2022/03/31 05:40:13;;;;;;;123.70;86.15;;;;;;;16.94;40.28;91337.66;5061996;28;20427;-89
2022/03/31 05:42:38;;;;;;;107.72;70.70;;;;;;;16.95;39.76;91330.94;5086893;28;20032;-87
2022/03/31 05:45:04;;;;;;;88.60;50.63;;;;;;;16.81;41.26;91327.72;5053416;28;20604;-89
2022/03/31 05:47:30;;;;;;;108.20;49.58;;;;;;;16.75;41.43;91333.34;5074991;28;20032;-89
2022/03/31 05:49:55;;;;;;;70.95;40.90;;;;;;;16.66;41.50;91328.50;5072804;28;20065;-89
2022/03/31 05:52:21;;;;;;;71.60;39.20;;;;;;;16.66;41.70;91344.13;5052839;28;20040;-87
2022/03/31 05:54:47;;;;;;;68.97;40.13;;;;;;;16.67;41.87;91331.94;5090939;28;20043;-89
2022/03/31 05:57:13;;;;;;;92.38;46.47;;;;;;;16.71;41.85;91321.34;5053548;28;20114;-88
2022/03/31 05:59:41;;;;;;;75.07;39.28;;;;;;;16.73;41.70;91327.72;5063917;28;20032;-85
2022/03/31 06:02:07;;;;;;;111.80;46.10;;;;;;;16.78;42.00;91332.25;5049438;28;20478;-90
2022/03/31 06:04:33;;;;;;;101.45;40.10;;;;;;;16.81;41.27;91335.91;5074727;28;20556;-89
2022/03/31 06:06:58;;;;;;;129.45;55.22;;;;;;;16.84;42.24;91332.06;5057941;28;20040;-89
2022/03/31 06:09:24;;;;;;;137.57;58.53;;;;;;;16.87;41.49;91333.69;5067460;28;20131;-86
2022/03/31 06:11:49;;;;;;;160.25;65.35;;;;;;;16.91;41.82;91344.22;5086634;28;20044;-89
2022/03/31 06:14:15;;;;;;;148.45;75.95;;;;;;;16.95;41.06;91344.56;5074816;28;20375;-86
2022/03/31 06:16:40;;;;;;;111.00;59.92;;;;;;;16.99;41.29;91344.94;5072686;28;20487;-89
2022/03/31 06:19:08;;;;;;;109.55;74.95;;;;;;;17.08;40.81;91333.44;5070058;28;20537;-87
2022/03/31 06:21:34;;;;;;;143.65;92.38;;;;;;;17.08;40.20;91334.16;5061503;28;20039;-88
2022/03/31 06:24:00;;;;;;;111.75;66.13;;;;;;;17.08;40.68;91341.63;5055135;28;20039;-88
2022/03/31 06:26:26;;;;;;;109.30;69.55;;;;;;;17.17;40.48;91334.84;5064150;28;20031;-84
2022/03/31 06:28:51;;;;;;;101.72;52.00;;;;;;;17.12;40.83;91333.78;5065151;28;20464;-86
2022/03/31 06:31:17;;;;;;;92.03;58.40;;;;;;;17.15;40.66;91338.13;5049294;28;20048;-84
2022/03/31 06:33:42;;;;;;;808.85;127.97;;;;;;;17.12;39.82;91333.78;5073394;28;20046;-85
2022/03/31 06:36:08;;;;;;;363.60;80.50;;;;;;;17.16;39.48;91333.41;5078831;28;20622;-85
2022/03/31 06:38:33;;;;;;;297.75;71.03;;;;;;;17.10;39.65;91334.31;5066589;28;20043;-88
2022/03/31 06:41:10;;;;;;;279.88;69.15;;;;;;;17.09;39.73;91338.34;5069843;28;20072;-85
2022/03/31 06:43:39;;;;;;;173.52;59.60;;;;;;;17.08;39.38;91342.34;5062721;28;20196;-89
2022/03/31 06:46:05;;;;;;;118.30;54.80;;;;;;;17.06;39.82;91336.72;5064994;28;20039;-84
2022/03/31 06:48:31;;;;;;;154.50;57.80;;;;;;;17.07;39.86;91334.72;5081869;28;20039;-85
2022/03/31 06:50:57;;;;;;;133.18;57.10;;;;;;;17.03;39.71;91343.28;5067565;28;20040;-84
2022/03/31 06:53:23;;;;;;;130.30;54.88;;;;;;;17.05;39.79;91334.53;5044093;28;20052;-84
2022/03/31 06:55:48;;;;;;;131.45;54.25;;;;;;;17.04;39.90;91328.34;5051153;28;20120;-85
2022/03/31 06:58:14;;;;;;;134.35;56.17;;;;;;;17.04;39.68;91339.28;5063551;28;20447;-85
2022/03/31 07:00:40;;;;;;;145.40;55.40;;;;;;;17.05;39.81;91335.28;5049054;28;20032;-88
2022/03/31 07:03:06;;;;;;;128.10;53.97;;;;;;;17.06;39.42;91338.72;5052917;28;20095;-87
2022/03/31 07:05:34;;;;;;;79.45;42.83;;;;;;;17.05;40.15;91338.00;5037811;28;20043;-85
2022/03/31 07:08:00;;;;;;;100.93;45.40;;;;;;;17.05;39.79;91335.28;5058762;28;20043;-88
2022/03/31 07:10:25;;;;;;;78.85;39.30;;;;;;;17.03;40.26;91329.63;5045172;28;20044;-85
2022/03/31 07:12:51;;;;;;;81.40;42.63;;;;;;;17.03;39.98;91326.19;5045050;28;20407;-87
2022/03/31 07:15:16;;;;;;;95.93;46.47;;;;;;;17.03;39.93;91326.91;5065713;28;20611;-87
2022/03/31 07:17:41;;;;;;;114.38;46.10;;;;;;;17.03;40.28;91331.63;5050460;28;20120;-88
2022/03/31 07:20:08;;;;;;;116.07;49.55;;;;;;;17.03;39.55;91326.91;5070819;28;20047;-85
2022/03/31 07:22:33;;;;;;;118.32;48.72;;;;;;;17.04;39.88;91327.63;5043087;28;20611;-86
2022/03/31 07:24:59;;;;;;;105.50;46.70;;;;;;;17.04;39.67;91328.34;5050088;28;20040;-86
2022/03/31 07:27:25;;;;;;;101.00;46.38;;;;;;;17.04;39.89;91324.91;5098883;28;20039;-86
2022/03/31 07:29:50;;;;;;;86.88;44.40;;;;;;;17.05;39.68;91329.09;5064307;28;20032;-87
2022/03/31 07:32:16;;;;;;;73.20;41.60;;;;;;;17.06;39.76;91328.53;5057278;28;20047;-87
2022/03/31 07:34:41;;;;;;;94.22;44.92;;;;;;;17.05;39.77;91332.53;5069590;28;20443;-86
2022/03/31 07:37:07;;;;;;;81.75;45.85;;;;;;;17.05;39.60;91331.81;5057210;28;20180;-87
2022/03/31 07:39:34;;;;;;;93.65;44.65;;;;;;;17.04;40.29;91325.63;5066442;28;20036;-86
2022/03/31 07:42:00;;;;;;;110.45;47.13;;;;;;;17.05;39.50;91338.00;5080914;28;20250;-86
2022/03/31 07:44:26;;;;;;;91.03;40.33;;;;;;;17.07;39.74;91330.00;5050859;28;20242;-89
2022/03/31 07:46:51;;;;;;;58.50;32.38;;;;;;;17.03;40.01;91324.19;5065805;28;20071;-89
2022/03/31 07:49:17;;;;;;;71.30;37.15;;;;;;;17.02;40.31;91328.19;5034278;28;20123;-91
2022/03/31 07:51:43;;;;;;;79.40;36.95;;;;;;;17.00;40.55;91328.00;5052701;28;20043;-90
2022/03/31 07:54:08;;;;;;;66.18;35.03;;;;;;;17.02;40.01;91322.00;5042457;28;20020;-87
2022/03/31 07:56:35;;;;;;;101.10;40.45;;;;;;;17.02;39.85;91332.91;5051102;28;20039;-87
2022/03/31 07:59:01;;;;;;;106.43;40.20;;;;;;;17.00;39.86;91333.47;5054952;28;20096;-89
2022/03/31 08:01:26;;;;;;;101.65;44.35;;;;;;;17.02;39.45;91330.19;5034152;28;20169;-88
2022/03/31 08:03:53;;;;;;;124.47;43.20;;;;;;;17.04;39.51;91330.34;5086924;28;20433;-90
2022/03/31 08:06:19;;;;;;;81.95;36.75;;;;;;;17.04;40.47;91327.63;5051735;28;20036;-91
2022/03/31 08:08:44;;;;;;;79.65;35.88;;;;;;;17.07;40.14;91316.34;5036990;28;20530;-86
2022/03/31 08:11:10;;;;;;;66.47;34.92;;;;;;;17.12;40.33;91322.84;5037221;28;20047;-89
2022/03/31 08:13:36;;;;;;;76.57;37.88;;;;;;;17.11;39.99;91319.38;5043614;28;20036;-85
2022/03/31 08:16:01;;;;;;;74.38;29.25;;;;;;;17.05;40.21;91323.63;5068356;28;20028;-88
2022/03/31 08:18:28;;;;;;;63.45;29.80;;;;;;;17.02;40.71;91319.25;5050753;28;20047;-87
2022/03/31 08:20:56;;;;;;;64.90;24.27;;;;;;;17.00;41.02;91325.28;5030203;28;20035;-86
2022/03/31 08:23:21;;;;;;;61.42;27.15;;;;;;;17.00;41.36;91321.81;5048393;28;20051;-86
2022/03/31 08:25:47;;;;;;;96.45;29.48;;;;;;;17.06;40.78;91327.81;5055354;28;20387;-89
2022/03/31 08:28:12;;;;;;;64.93;22.75;;;;;;;17.04;41.38;91322.91;5065992;28;20522;-86
2022/03/31 08:30:38;;;;;;;60.58;24.10;;;;;;;17.03;41.59;91323.44;5052057;28;20135;-85
2022/03/31 08:33:03;;;;;;;52.30;22.77;;;;;;;17.06;41.66;91328.53;5064331;28;20130;-86
2022/03/31 08:35:29;;;;;;;66.18;27.38;;;;;;;17.09;41.16;91321.25;5055008;28;20599;-86
2022/03/31 08:37:54;;;;;;;59.70;29.17;;;;;;;17.04;41.15;91322.91;5039683;28;20036;-86
2022/03/31 08:40:20;;;;;;;39.90;19.77;;;;;;;17.00;41.68;91319.81;5039665;28;20046;-91
2022/03/31 08:42:45;;;;;;;56.00;21.80;;;;;;;17.02;41.22;91322.72;5062821;28;20580;-90
2022/03/31 08:45:14;;;;;;;45.85;22.50;;;;;;;17.00;41.20;91319.09;5071211;28;20040;-89
2022/03/31 08:47:40;;;;;;;52.80;21.20;;;;;;;17.02;41.34;91320.00;5058271;28;20103;-89
2022/03/31 08:50:07;;;;;;;50.10;20.48;;;;;;;17.03;42.15;91318.72;5059160;28;20046;-93
2022/03/31 08:52:32;;;;;;;46.83;20.83;;;;;;;17.03;42.18;91315.25;5074932;28;20088;-90
2022/03/31 08:54:58;;;;;;;46.85;19.48;;;;;;;17.05;41.87;91320.91;5039586;28;20032;-90
2022/03/31 08:57:25;;;;;;;55.88;23.60;;;;;;;17.09;41.03;91324.69;5062307;28;20035;-89
2022/03/31 08:59:51;;;;;;;65.00;22.48;;;;;;;17.07;41.31;91321.81;5058821;28;20070;-88
2022/03/31 09:02:26;;;;;;;59.47;25.27;;;;;;;17.07;41.00;91315.63;5060300;28;20036;-90
2022/03/31 09:05:06;;;;;;;58.47;24.42;;;;;;;17.08;41.29;91317.06;5056176;28;20043;-90
2022/03/31 09:07:32;;;;;;;102.35;31.75;;;;;;;17.09;40.74;91313.06;5054886;28;20046;-89
2022/03/31 09:09:57;;;;;;;82.75;30.38;;;;;;;17.09;40.95;91308.31;5076960;28;20040;-87
2022/03/31 09:12:26;;;;;;;82.28;30.40;;;;;;;17.08;40.21;91308.88;5055179;28;20028;-89
2022/03/31 09:14:52;;;;;;;56.17;25.92;;;;;;;17.04;41.09;91313.97;5055883;28;20059;-89
2022/03/31 09:17:18;;;;;;;72.55;24.20;;;;;;;17.02;41.47;91311.06;5091205;28;20477;-90
2022/03/31 09:19:43;;;;;;;87.32;23.48;;;;;;;17.04;41.69;91303.06;5058845;28;20035;-89
2022/03/31 09:22:09;;;;;;;89.35;28.88;;;;;;;17.07;41.32;91310.88;5054927;28;20395;-90
2022/03/31 09:24:35;;;;;;;83.18;23.58;;;;;;;17.03;42.83;91313.25;5053989;28;20039;-88
2022/03/31 09:27:01;;;;;;;62.33;22.55;;;;;;;17.02;43.45;91314.53;5066251;28;20055;-87
2022/03/31 09:29:27;;;;;;;56.85;20.83;;;;;;;17.05;42.71;91312.72;5057435;28;20475;-91
2022/03/31 09:31:53;;;;;;;79.40;27.48;;;;;;;17.06;43.13;91314.88;5069290;28;20036;-88
2022/03/31 09:34:21;;;;;;;102.65;30.75;;;;;;;17.09;42.70;91304.88;5089606;28;20047;-89
2022/03/31 09:36:51;;;;;;;89.55;30.02;;;;;;;17.05;42.69;91299.78;5059405;28;20039;-90
2022/03/31 09:39:17;;;;;;;64.68;25.77;;;;;;;17.03;43.31;91305.06;5073887;28;20072;-89
2022/03/31 09:41:44;;;;;;;82.80;28.48;;;;;;;17.09;43.18;91304.88;5084012;28;20056;-90
2022/03/31 09:44:14;;;;;;;83.70;30.98;;;;;;;17.04;43.23;91313.97;5069069;28;20074;-89
2022/03/31 09:46:39;;;;;;;86.53;29.63;;;;;;;17.05;43.25;91305.25;5061559;28;20044;-91
2022/03/31 09:49:19;;;;;;;76.25;26.20;;;;;;;17.07;43.06;91308.16;5062493;28;20046;-89
2022/03/31 09:51:57;;;;;;;96.90;30.17;;;;;;;17.08;42.44;91309.59;5062794;28;20064;-89
2022/03/31 09:54:26;;;;;;;71.03;25.63;;;;;;;17.08;42.75;91315.06;5060195;28;20052;-90
2022/03/31 09:56:52;;;;;;;101.25;38.08;;;;;;;17.11;42.13;91308.47;5055484;28;20039;-91
2022/03/31 09:59:17;;;;;;;73.43;29.88;;;;;;;17.09;42.98;91308.31;5089170;28;20575;-87
2022/03/31 10:01:43;;;;;;;112.55;40.75;;;;;;;17.10;41.83;91298.13;5069270;28;20032;-88
2022/03/31 10:04:10;;;;;;;100.22;34.38;;;;;;;17.08;42.63;91300.69;5071223;28;20031;-88
2022/03/31 10:06:37;;;;;;;73.95;30.02;;;;;;;17.10;42.02;91303.59;5084922;28;20074;-88
2022/03/31 10:09:03;;;;;;;87.80;29.70;;;;;;;17.07;42.39;91299.22;5074133;28;20043;-89
2022/03/31 10:11:29;;;;;;;84.70;33.92;;;;;;;17.09;42.62;91294.69;5052790;28;20040;-88
2022/03/31 10:14:01;;;;;;;100.78;39.33;;;;;;;17.09;42.11;91297.41;5049364;28;20115;-88
2022/03/31 10:16:34;;;;;;;100.18;37.83;;;;;;;17.07;42.57;91294.50;5081001;28;20285;-85
2022/03/31 10:19:00;;;;;;;97.30;35.85;;;;;;;17.09;41.79;91296.69;5053747;28;20028;-87
2022/03/31 10:21:26;;;;;;;109.25;37.88;;;;;;;17.10;41.50;91296.09;5068163;28;20046;-86
2022/03/31 10:26:36;;;;;;;75.20;31.50;;;;;;;17.08;42.06;91287.03;5071737;28;20070;-86
2022/03/31 10:29:02;;;;;;;87.35;35.42;;;;;;;17.09;41.63;91288.50;5053218;28;20127;-86
2022/03/31 10:31:39;;;;;;;73.65;31.90;;;;;;;17.08;41.67;91285.03;5071959;28;20042;-86
2022/03/31 10:34:05;;;;;;;84.55;31.25;;;;;;;17.11;41.63;91288.63;5073648;28;20108;-87
2022/03/31 10:36:47;;;;;;;73.38;26.67;;;;;;;17.07;41.82;91277.41;5053917;28;20484;-86
2022/03/31 10:39:23;;;;;;;67.95;26.73;;;;;;;17.08;42.23;91267.94;5068985;28;20043;-88
2022/03/31 10:42:00;;;;;;;73.22;29.83;;;;;;;17.07;41.57;91269.22;5043857;28;20041;-88
2022/03/31 10:44:25;;;;;;;49.50;22.98;;;;;;;17.07;42.38;91263.75;5059538;28;20028;-87
2022/03/31 10:47:07;;;;;;;53.03;24.45;;;;;;;17.07;42.11;91261.75;5059156;28;20032;-89
2022/03/31 10:49:34;;;;;;;66.45;27.08;;;;;;;17.09;41.41;91253.72;5045456;28;20036;-92
2022/03/31 10:52:23;;;;;;;70.88;25.85;;;;;;;17.08;41.39;91257.75;5054270;28;20035;-91
2022/03/31 10:54:49;;;;;;;51.17;22.92;;;;;;;17.09;41.96;91261.91;5073323;28;20055;-89
2022/03/31 10:57:18;;;;;;;47.65;19.30;;;;;;;17.07;41.46;91255.56;5096082;28;20548;-90
2022/03/31 10:59:45;;;;;;;50.85;19.98;;;;;;;17.05;41.65;91255.38;5058203;28;20036;-89
2022/03/31 11:02:22;;;;;;;81.82;25.88;;;;;;;17.08;41.54;91251.56;5053789;28;20047;-90
2022/03/31 11:04:52;;;;;;;91.60;28.90;;;;;;;17.08;41.59;91244.09;5050735;28;20040;-91
2022/03/31 11:07:20;;;;;;;105.70;31.10;;;;;;;17.09;41.36;91244.81;5063787;28;20549;-91
2022/03/31 11:09:46;;;;;;;94.38;31.33;;;;;;;17.07;41.52;91241.91;5057802;28;20036;-90
2022/03/31 11:12:27;;;;;;;76.22;27.98;;;;;;;17.10;41.33;91236.03;5073363;28;20043;-90
2022/03/31 11:14:59;;;;;;;89.15;29.63;;;;;;;17.07;41.33;91239.91;5044002;28;20108;-94
2022/03/31 11:17:25;;;;;;;93.75;31.33;;;;;;;17.09;41.72;91242.81;5060939;28;20038;-93
2022/03/31 11:19:53;;;;;;;92.60;30.85;;;;;;;17.09;41.26;91234.63;5050744;28;20032;-94
2022/03/31 11:22:30;;;;;;;100.05;32.75;;;;;;;17.08;41.24;91235.91;5048733;28;20049;-94
2022/03/31 11:25:10;;;;;;;102.47;35.83;;;;;;;17.09;41.35;91231.16;5021467;28;20033;-92
2022/03/31 11:27:37;;;;;;;105.70;38.00;;;;;;;17.10;41.06;91227.16;5042747;28;20044;-93